Time;durP1;ratioP1;P1;durP2;ratioP2;P2;SDS_P1;SDS_P2;PMS_P1;PMS_P2;Temp;Humidity;BMP_temperature;BMP_pressure;BME280_temperature;BME280_humidity;BME280_pressure;Samples;Min_cycle;Max_cycle;Signal;HPM_P1;HPM_P2
2023/05/17 00:00:42;;;;;;;10.20;9.25;;;23.20;90.00;;;;;;6265889;27;89301;-67
2023/05/17 00:03:46;;;;;;;10.32;9.32;;;23.20;89.10;;;;;;6272757;27;89028;-67
2023/05/17 00:06:48;;;;;;;11.02;9.93;;;23.20;89.10;;;;;;6259720;27;89419;-67
2023/05/17 00:09:50;;;;;;;10.27;9.38;;;23.20;89.10;;;;;;6266178;27;89003;-67
2023/05/17 00:12:51;;;;;;;10.40;9.40;;;23.20;90.00;;;;;;6268165;27;88793;-67
2023/05/17 00:15:53;;;;;;;9.60;8.77;;;23.20;89.30;;;;;;6299166;27;88970;-65
2023/05/17 00:18:57;;;;;;;11.18;9.85;;;23.20;89.30;;;;;;6284647;27;89148;-67
2023/05/17 00:21:59;;;;;;;10.32;9.38;;;23.20;89.10;;;;;;6293142;27;90173;-68
2023/05/17 00:25:01;;;;;;;9.60;8.73;;;23.20;89.00;;;;;;6268200;27;87963;-67
2023/05/17 00:28:03;;;;;;;9.20;8.30;;;23.20;89.00;;;;;;6280923;27;89090;-67
2023/05/17 00:31:05;;;;;;;9.60;8.27;;;23.20;88.40;;;;;;6266463;27;88724;-67
2023/05/17 00:34:08;;;;;;;8.95;8.15;;;23.20;87.80;;;;;;6284945;27;89079;-67
2023/05/17 00:37:10;;;;;;;9.25;8.35;;;23.10;87.70;;;;;;6267038;27;89151;-67
2023/05/17 00:40:13;;;;;;;9.48;8.60;;;23.10;87.90;;;;;;6276592;27;89305;-67
2023/05/17 00:43:16;;;;;;;9.27;8.40;;;23.10;88.00;;;;;;6284373;27;88340;-67
2023/05/17 00:46:18;;;;;;;9.32;8.45;;;23.10;88.10;;;;;;6276751;27;89147;-67
2023/05/17 00:49:21;;;;;;;9.65;8.65;;;23.10;88.20;;;;;;6272125;27;89087;-67
2023/05/17 00:52:23;;;;;;;10.27;9.18;;;23.10;88.30;;;;;;6274304;27;90088;-67
2023/05/17 00:55:26;;;;;;;9.38;8.48;;;23.10;88.20;;;;;;6274423;27;89306;-67
2023/05/17 00:58:28;;;;;;;9.75;8.85;;;23.10;88.10;;;;;;6284400;27;89142;-67
2023/05/17 01:01:30;;;;;;;9.57;8.57;;;23.10;88.20;;;;;;6275325;27;89476;-67
2023/05/17 01:04:34;;;;;;;9.82;8.82;;;23.10;88.20;;;;;;6287682;27;89249;-67
2023/05/17 01:07:35;;;;;;;9.48;8.68;;;23.10;88.20;;;;;;6270913;27;89149;-67
2023/05/17 01:10:44;;;;;;;10.00;9.10;;;23.10;88.20;;;;;;6289909;27;89073;-67
2023/05/17 01:14:09;;;;;;;9.57;8.68;;;23.10;88.20;;;;;;6291689;27;88356;-67
2023/05/17 01:17:16;;;;;;;9.70;8.80;;;23.10;88.30;;;;;;6271545;27;89382;-67
2023/05/17 01:20:27;;;;;;;9.68;8.77;;;23.10;88.20;;;;;;6270771;27;89064;-67
2023/05/17 01:23:42;;;;;;;10.10;9.10;;;23.10;88.30;;;;;;6282095;27;90339;-67
2023/05/17 01:26:49;;;;;;;10.00;9.02;;;23.10;88.20;;;;;;6275701;27;89138;-68
2023/05/17 01:29:54;;;;;;;10.32;9.32;;;23.10;88.30;;;;;;6283445;27;88944;-67
2023/05/17 01:32:58;;;;;;;9.73;8.73;;;23.10;88.20;;;;;;6286195;27;89295;-67
2023/05/17 01:36:00;;;;;;;10.25;9.30;;;23.10;88.10;;;;;;6270404;27;89105;-67
2023/05/17 01:39:02;;;;;;;10.07;9.05;;;23.10;88.00;;;;;;6279531;27;89081;-67
2023/05/17 01:42:18;;;;;;;10.68;9.68;;;23.10;88.00;;;;;;6244224;27;89086;-67
2023/05/17 01:45:24;;;;;;;10.48;9.40;;;23.00;88.00;;;;;;6246584;27;87252;-67
2023/05/17 01:48:34;;;;;;;11.18;10.07;;;23.00;87.90;;;;;;6256298;27;87668;-67
2023/05/17 01:51:45;;;;;;;10.02;9.13;;;23.00;87.90;;;;;;6241223;27;89109;-68
2023/05/17 01:54:50;;;;;;;10.20;9.25;;;23.00;87.90;;;;;;6254528;27;89952;-67
2023/05/17 01:57:56;;;;;;;10.23;9.23;;;23.00;88.00;;;;;;6250972;27;88015;-67
2023/05/17 02:01:01;;;;;;;9.93;9.02;;;23.00;87.90;;;;;;6238498;27;89602;-67
2023/05/17 02:04:04;;;;;;;10.32;9.32;;;23.00;87.90;;;;;;6260391;27;89293;-67
2023/05/17 02:07:06;;;;;;;10.77;9.68;;;23.00;87.90;;;;;;6251906;27;87669;-68
2023/05/17 02:10:09;;;;;;;11.35;10.23;;;23.00;87.80;;;;;;6250851;27;89491;-67
2023/05/17 02:13:12;;;;;;;11.05;10.05;;;23.00;87.80;;;;;;6248319;27;89083;-67
2023/05/17 02:16:14;;;;;;;10.80;9.80;;;23.00;87.80;;;;;;6237433;27;88711;-67
2023/05/17 02:19:16;;;;;;;10.98;9.88;;;23.00;87.80;;;;;;6255546;27;89145;-67
2023/05/17 02:22:18;;;;;;;11.55;10.35;;;23.00;87.80;;;;;;6266107;27;89177;-68
2023/05/17 02:25:20;;;;;;;11.10;10.02;;;23.00;87.80;;;;;;6231316;27;90032;-67
2023/05/17 02:28:24;;;;;;;11.35;10.30;;;23.00;87.70;;;;;;6254969;27;89095;-68
2023/05/17 02:31:26;;;;;;;10.60;9.60;;;23.00;87.70;;;;;;6257495;27;89106;-67
2023/05/17 02:34:28;;;;;;;11.27;10.18;;;23.00;87.70;;;;;;6257487;27;89060;-68
2023/05/17 02:37:30;;;;;;;10.68;9.73;;;23.00;87.70;;;;;;6252459;27;89034;-68
2023/05/17 02:40:32;;;;;;;11.15;10.07;;;23.00;87.60;;;;;;6263662;27;89065;-68
2023/05/17 02:43:35;;;;;;;11.07;9.98;;;23.00;87.60;;;;;;6257010;27;89549;-68
2023/05/17 02:46:37;;;;;;;10.57;9.57;;;23.00;87.60;;;;;;6285218;27;88346;-68
2023/05/17 02:49:39;;;;;;;10.20;9.23;;;23.00;87.60;;;;;;6278891;27;89072;-68
2023/05/17 02:52:41;;;;;;;10.23;9.30;;;22.90;87.40;;;;;;6285908;27;89146;-67
2023/05/17 02:55:43;;;;;;;10.38;9.40;;;22.90;87.40;;;;;;6278256;27;90040;-68
2023/05/17 02:58:46;;;;;;;10.35;9.35;;;22.90;87.40;;;;;;6282327;27;88153;-68
2023/05/17 03:01:49;;;;;;;10.95;9.85;;;22.90;87.40;;;;;;6294352;27;87993;-67
2023/05/17 03:04:51;;;;;;;10.07;9.18;;;22.90;87.40;;;;;;6280202;27;89454;-68
2023/05/17 03:07:53;;;;;;;9.70;8.70;;;22.90;87.40;;;;;;6277956;27;89121;-68
2023/05/17 03:10:55;;;;;;;10.13;9.13;;;22.90;87.40;;;;;;6284667;27;89140;-68
2023/05/17 03:13:58;;;;;;;10.18;9.27;;;22.90;87.40;;;;;;6278806;27;89444;-67
2023/05/17 03:17:00;;;;;;;10.77;9.77;;;22.90;87.40;;;;;;6277327;27;88366;-67
2023/05/17 03:20:03;;;;;;;10.27;9.25;;;22.90;87.20;;;;;;6284874;27;89085;-68
2023/05/17 03:23:05;;;;;;;9.77;8.80;;;22.90;87.30;;;;;;6295259;27;88917;-67
2023/05/17 03:26:06;;;;;;;9.98;9.07;;;22.90;87.30;;;;;;6279808;27;90082;-67
2023/05/17 03:29:10;;;;;;;10.15;9.15;;;22.90;87.30;;;;;;6300364;27;89077;-67
2023/05/17 03:32:12;;;;;;;9.85;8.95;;;22.90;87.20;;;;;;6297665;27;89220;-67
2023/05/17 03:35:14;;;;;;;9.68;8.68;;;22.80;87.00;;;;;;6284528;27;89318;-67
2023/05/17 03:38:16;;;;;;;9.75;8.85;;;22.90;86.90;;;;;;6279214;27;89136;-67
2023/05/17 03:41:18;;;;;;;10.32;9.32;;;22.90;87.00;;;;;;6281120;27;89116;-67
2023/05/17 03:44:21;;;;;;;9.50;8.65;;;22.80;86.90;;;;;;6274166;27;89207;-67
2023/05/17 03:47:24;;;;;;;9.70;8.80;;;22.80;86.90;;;;;;6269464;27;88468;-67
2023/05/17 03:50:26;;;;;;;9.63;8.73;;;22.80;86.90;;;;;;6260344;27;89272;-67
2023/05/17 03:53:28;;;;;;;9.77;8.88;;;22.90;86.90;;;;;;6264874;27;89008;-67
2023/05/17 03:56:30;;;;;;;9.38;8.50;;;22.90;87.00;;;;;;6269265;27;90063;-67
2023/05/17 03:59:33;;;;;;;8.98;8.10;;;22.90;86.90;;;;;;6264014;27;89086;-67
2023/05/17 04:02:35;;;;;;;9.32;8.43;;;22.90;86.80;;;;;;6291495;27;89107;-67
2023/05/17 04:05:37;;;;;;;9.20;8.30;;;22.90;86.70;;;;;;6272231;27;88870;-67
2023/05/17 04:08:39;;;;;;;9.40;8.50;;;22.90;86.70;;;;;;6265955;27;89541;-67
2023/05/17 04:11:41;;;;;;;10.23;8.85;;;23.00;86.70;;;;;;6281187;27;89276;-67
2023/05/17 04:14:44;;;;;;;9.38;8.38;;;23.00;86.70;;;;;;6262794;27;89353;-67
2023/05/17 04:17:46;;;;;;;8.48;7.68;;;23.00;86.60;;;;;;6270420;27;88542;-67
2023/05/17 04:20:48;;;;;;;8.80;8.00;;;23.00;86.60;;;;;;6291818;27;88992;-68
2023/05/17 04:23:50;;;;;;;8.90;8.00;;;23.00;86.50;;;;;;6257219;27;88972;-67
2023/05/17 04:26:52;;;;;;;8.68;7.78;;;23.00;86.40;;;;;;6275096;27;90002;-68
2023/05/17 04:29:56;;;;;;;8.77;7.90;;;23.10;86.40;;;;;;6303412;27;89393;-67
2023/05/17 04:32:58;;;;;;;8.20;7.50;;;23.00;86.20;;;;;;6272266;27;89085;-67
2023/05/17 04:36:01;;;;;;;8.18;7.38;;;23.00;86.10;;;;;;6283013;27;89064;-68
2023/05/17 04:39:03;;;;;;;7.90;7.03;;;23.10;86.20;;;;;;6275929;27;87878;-67
2023/05/17 04:42:05;;;;;;;9.15;8.25;;;23.10;86.20;;;;;;6269018;27;89005;-67
2023/05/17 04:45:10;;;;;;;8.68;7.88;;;23.10;87.60;;;;;;6269580;27;89046;-67
2023/05/17 04:48:12;;;;;;;8.30;7.45;;;23.20;87.90;;;;;;6293278;27;88420;-67
2023/05/17 04:51:14;;;;;;;8.48;7.57;;;23.20;87.30;;;;;;6295570;27;89083;-67
2023/05/17 04:54:16;;;;;;;8.18;7.40;;;23.30;87.00;;;;;;6284664;27;89173;-68
2023/05/17 04:57:18;;;;;;;8.68;6.80;;;23.30;86.90;;;;;;6279470;27;90053;-68
2023/05/17 05:00:22;;;;;;;8.02;7.10;;;23.30;86.40;;;;;;6282114;27;89236;-67
2023/05/17 05:03:25;;;;;;;10.07;7.43;;;23.30;85.60;;;;;;6281493;27;89046;-67
2023/05/17 05:06:27;;;;;;;10.30;6.80;;;23.40;85.70;;;;;;6267384;27;89097;-68
2023/05/17 05:09:29;;;;;;;10.38;5.40;;;23.30;83.50;;;;;;6274150;27;89191;-67
2023/05/17 05:12:31;;;;;;;9.23;5.30;;;23.30;79.20;;;;;;6267709;27;89046;-68
2023/05/17 05:15:34;;;;;;;8.38;4.03;;;23.20;78.10;;;;;;6270967;27;88253;-67
2023/05/17 05:18:36;;;;;;;6.80;3.53;;;23.20;77.10;;;;;;6259444;27;88699;-68
2023/05/17 05:21:38;;;;;;;6.35;3.97;;;23.20;77.20;;;;;;6291999;27;89223;-68
2023/05/17 05:24:41;;;;;;;6.40;4.13;;;23.10;78.10;;;;;;6275687;27;89164;-67
2023/05/17 05:27:43;;;;;;;7.40;3.92;;;23.10;78.80;;;;;;6268923;27;90067;-67
2023/05/17 05:30:46;;;;;;;11.00;3.95;;;23.10;79.40;;;;;;6294465;27;89090;-67
2023/05/17 05:33:48;;;;;;;7.68;3.88;;;23.10;79.60;;;;;;6281356;27;89136;-68
2023/05/17 05:36:51;;;;;;;8.77;4.25;;;23.10;79.80;;;;;;6280163;27;89078;-68
2023/05/17 05:39:53;;;;;;;10.40;4.80;;;23.20;80.20;;;;;;6280620;27;89539;-67
2023/05/17 05:42:55;;;;;;;14.68;6.28;;;23.10;80.40;;;;;;6295267;27;89104;-68
2023/05/17 05:45:58;;;;;;;13.55;5.93;;;23.20;81.00;;;;;;6281777;27;89051;-68
2023/05/17 05:49:00;;;;;;;11.88;5.35;;;23.20;81.50;;;;;;6279590;27;88430;-68
2023/05/17 05:52:02;;;;;;;10.98;5.57;;;23.20;81.60;;;;;;6274525;27;89468;-68
2023/05/17 05:55:05;;;;;;;10.82;5.03;;;23.20;81.60;;;;;;6277291;27;89059;-68
2023/05/17 05:58:07;;;;;;;9.80;5.47;;;23.20;81.90;;;;;;6274156;27;89958;-68
2023/05/17 06:01:11;;;;;;;10.95;5.10;;;23.20;81.80;;;;;;6277276;27;89445;-68
2023/05/17 06:04:13;;;;;;;12.60;5.90;;;23.20;81.80;;;;;;6288895;27;89180;-68
2023/05/17 06:07:15;;;;;;;10.45;5.25;;;23.20;81.90;;;;;;6281972;27;89104;-68
2023/05/17 06:10:17;;;;;;;13.25;5.72;;;23.30;82.00;;;;;;6263090;27;89263;-68
2023/05/17 06:13:19;;;;;;;10.25;5.30;;;23.20;82.00;;;;;;6287066;27;88794;-68
2023/05/17 06:16:22;;;;;;;10.10;5.00;;;23.30;82.10;;;;;;6264994;27;89696;-67
2023/05/17 06:19:24;;;;;;;9.45;4.55;;;23.30;82.20;;;;;;6256887;27;88275;-68
2023/05/17 06:22:26;;;;;;;8.40;4.65;;;23.30;82.20;;;;;;6284149;27;89082;-68
2023/05/17 06:25:28;;;;;;;9.73;5.25;;;23.30;82.20;;;;;;6269781;27;88743;-68
2023/05/17 06:28:30;;;;;;;10.55;5.35;;;23.30;82.30;;;;;;6287460;27;90361;-68
2023/05/17 06:31:34;;;;;;;9.32;4.75;;;23.30;82.20;;;;;;6282119;27;89438;-67
2023/05/17 06:34:36;;;;;;;9.40;4.70;;;23.30;82.20;;;;;;6269588;27;89020;-68
2023/05/17 06:37:37;;;;;;;11.00;5.00;;;23.30;82.20;;;;;;6281747;27;89094;-68
2023/05/17 06:40:39;;;;;;;8.30;4.97;;;23.30;82.20;;;;;;6280967;27;89351;-68
2023/05/17 06:43:41;;;;;;;8.35;4.47;;;23.30;82.20;;;;;;6291848;27;89348;-68
2023/05/17 06:46:45;;;;;;;8.20;4.40;;;23.30;82.30;;;;;;6257440;27;89081;-68
2023/05/17 06:49:47;;;;;;;8.80;4.53;;;23.30;82.30;;;;;;6288770;27;88361;-68
2023/05/17 06:52:49;;;;;;;9.48;4.53;;;23.30;82.30;;;;;;6281944;27;88999;-68
2023/05/17 06:55:51;;;;;;;6.97;4.00;;;23.30;82.30;;;;;;6287417;27;89354;-68
2023/05/17 06:58:53;;;;;;;6.80;3.85;;;23.30;82.30;;;;;;6266296;27;90255;-68
2023/05/17 07:01:56;;;;;;;8.82;4.70;;;23.30;82.40;;;;;;6279169;27;89189;-68
2023/05/17 07:04:58;;;;;;;8.32;4.47;;;23.30;82.40;;;;;;6291799;27;89457;-68
2023/05/17 07:08:00;;;;;;;7.53;4.20;;;23.30;82.40;;;;;;6280723;27;89072;-67
2023/05/17 07:11:03;;;;;;;6.28;3.70;;;23.30;82.50;;;;;;6267629;27;89088;-67
2023/05/17 07:14:05;;;;;;;10.00;5.15;;;23.30;82.50;;;;;;6285291;27;89421;-68
2023/05/17 07:17:08;;;;;;;5.30;3.80;;;23.30;83.30;;;;;;6281198;27;88585;-67
2023/05/17 07:20:12;;;;;;;6.95;3.90;;;23.30;82.50;;;;;;6268292;27;88360;-68
2023/05/17 07:23:14;;;;;;;7.05;3.90;;;23.30;82.50;;;;;;6281924;27;89042;-68
2023/05/17 07:26:17;;;;;;;7.10;4.07;;;23.30;82.50;;;;;;6255786;27;89218;-68
2023/05/17 07:29:19;;;;;;;5.78;3.80;;;23.30;82.50;;;;;;6284158;27;90045;-67
2023/05/17 07:32:22;;;;;;;7.13;3.90;;;23.30;82.60;;;;;;6276860;27;89138;-68
2023/05/17 07:35:24;;;;;;;6.00;3.88;;;23.30;82.60;;;;;;6273842;27;89132;-68
2023/05/17 07:38:26;;;;;;;5.57;3.80;;;23.30;82.70;;;;;;6277260;27;89082;-68
2023/05/17 07:41:28;;;;;;;7.45;3.92;;;23.30;82.70;;;;;;6269943;27;89134;-68
2023/05/17 07:44:30;;;;;;;6.40;3.67;;;23.30;82.70;;;;;;6292975;27;89096;-68
2023/05/17 07:47:34;;;;;;;6.53;3.70;;;23.30;82.70;;;;;;6303401;27;89444;-68
2023/05/17 07:50:36;;;;;;;6.82;3.70;;;23.30;82.70;;;;;;6282066;27;88338;-68
2023/05/17 07:53:37;;;;;;;6.75;3.70;;;23.30;82.70;;;;;;6276322;27;89264;-68
2023/05/17 07:56:39;;;;;;;5.97;3.60;;;23.30;82.70;;;;;;6288414;27;89014;-68
2023/05/17 07:59:41;;;;;;;6.65;3.90;;;23.30;82.70;;;;;;6279279;27;90282;-68
2023/05/17 08:02:45;;;;;;;6.38;3.42;;;23.30;82.70;;;;;;6290124;27;88943;-68
2023/05/17 08:05:47;;;;;;;4.88;3.30;;;23.30;82.70;;;;;;6283611;27;88288;-68
2023/05/17 08:08:49;;;;;;;4.93;3.10;;;23.30;82.70;;;;;;6283729;27;89092;-68
2023/05/17 08:11:51;;;;;;;5.63;3.30;;;23.30;82.70;;;;;;6283251;27;89024;-68
2023/05/17 08:14:53;;;;;;;5.95;3.70;;;23.30;82.70;;;;;;6296645;27;89087;-68
2023/05/17 08:17:56;;;;;;;5.43;3.53;;;23.30;82.70;;;;;;6282994;27;89081;-68
2023/05/17 08:20:58;;;;;;;4.35;3.13;;;23.30;82.70;;;;;;6286351;27;88481;-68
2023/05/17 08:24:00;;;;;;;5.70;3.25;;;23.30;82.80;;;;;;6266344;27;89097;-67
2023/05/17 08:27:02;;;;;;;5.70;3.30;;;23.30;82.80;;;;;;6274345;27;89216;-68
2023/05/17 08:30:05;;;;;;;6.57;3.67;;;23.30;82.80;;;;;;6267155;27;90020;-67
2023/05/17 08:33:10;;;;;;;6.47;3.40;;;23.30;82.70;;;;;;6259021;27;89361;-68
2023/05/17 08:36:12;;;;;;;3.70;2.70;;;23.30;82.70;;;;;;6271140;27;89189;-68
2023/05/17 08:39:14;;;;;;;6.50;3.30;;;23.30;82.70;;;;;;6273560;27;89827;-68
2023/05/17 08:42:21;;;;;;;4.30;3.10;;;23.30;82.60;;;;;;6281473;27;88954;-68
2023/05/17 08:45:23;;;;;;;5.57;3.10;;;23.30;82.70;;;;;;6287398;27;89546;-68
2023/05/17 08:48:29;;;;;;;3.90;2.85;;;23.40;82.70;;;;;;6283901;27;89077;-68
2023/05/17 08:51:32;;;;;;;6.03;3.45;;;23.30;82.60;;;;;;6266869;27;89110;-68
2023/05/17 08:54:34;;;;;;;5.13;3.10;;;23.30;82.60;;;;;;6273067;27;89313;-68
2023/05/17 08:57:39;;;;;;;5.38;2.92;;;23.30;82.60;;;;;;6308946;27;88287;-68
2023/05/17 09:00:41;;;;;;;4.68;3.03;;;23.40;82.60;;;;;;6261969;27;91493;-68
2023/05/17 09:03:48;;;;;;;4.60;2.92;;;23.30;82.50;;;;;;6290596;27;89100;-68
2023/05/17 09:06:50;;;;;;;5.10;3.20;;;23.40;82.50;;;;;;6267635;27;89976;-68
2023/05/17 09:09:53;;;;;;;4.20;2.75;;;23.30;82.40;;;;;;6277431;27;89057;-68
2023/05/17 09:12:55;;;;;;;3.58;2.38;;;23.40;82.50;;;;;;6280816;27;88947;-68
2023/05/17 09:15:57;;;;;;;3.85;2.65;;;23.40;82.50;;;;;;6272728;27;89108;-68
2023/05/17 09:19:01;;;;;;;3.92;2.45;;;23.40;82.50;;;;;;6286198;27;87997;-68
2023/05/17 09:22:04;;;;;;;3.80;2.70;;;23.40;82.50;;;;;;6280785;27;88671;-69
2023/05/17 09:25:07;;;;;;;4.13;2.67;;;23.30;82.40;;;;;;6267838;27;89568;-68
2023/05/17 09:28:10;;;;;;;3.40;2.33;;;23.40;82.50;;;;;;6283671;27;89275;-68
2023/05/17 09:31:13;;;;;;;4.00;2.80;;;23.30;82.40;;;;;;6304601;27;90084;-68
2023/05/17 09:34:22;;;;;;;3.28;2.55;;;23.30;82.40;;;;;;6286276;27;89056;-68
2023/05/17 09:37:25;;;;;;;3.17;2.28;;;23.40;82.50;;;;;;6271110;27;89279;-68
2023/05/17 09:40:27;;;;;;;4.82;2.50;;;23.40;82.50;;;;;;6286047;27;89226;-68
2023/05/17 09:43:30;;;;;;;4.40;2.70;;;23.30;82.40;;;;;;6292814;27;89303;-68
2023/05/17 09:46:34;;;;;;;3.75;2.40;;;23.40;82.50;;;;;;6283598;27;88958;-68
2023/05/17 09:49:37;;;;;;;4.03;2.60;;;23.40;82.50;;;;;;6276523;27;89565;-68
2023/05/17 09:52:39;;;;;;;3.92;2.60;;;23.40;82.40;;;;;;6282401;27;88310;-68
2023/05/17 09:55:41;;;;;;;4.00;2.80;;;23.40;82.40;;;;;;6277998;27;89073;-69
2023/05/17 09:58:43;;;;;;;4.47;2.60;;;23.40;82.40;;;;;;6261800;27;89442;-69
2023/05/17 10:01:45;;;;;;;3.83;2.53;;;23.40;82.30;;;;;;6271474;27;90014;-69
2023/05/17 10:04:50;;;;;;;2.95;2.42;;;23.40;82.40;;;;;;6268415;27;89394;-69
2023/05/17 10:07:53;;;;;;;3.22;2.25;;;23.40;82.40;;;;;;6285210;27;89103;-68
2023/05/17 10:10:59;;;;;;;3.53;2.40;;;23.30;82.30;;;;;;6282060;27;89095;-69
2023/05/17 10:14:11;;;;;;;3.70;2.40;;;23.40;82.30;;;;;;6281769;27;89788;-68
2023/05/17 10:17:14;;;;;;;3.53;2.40;;;23.40;82.30;;;;;;6280496;27;87900;-68
2023/05/17 10:20:17;;;;;;;2.47;2.05;;;23.40;82.30;;;;;;6280182;27;87977;-69
2023/05/17 10:23:21;;;;;;;2.78;2.25;;;23.40;82.30;;;;;;6299772;27;88346;-68
2023/05/17 10:26:23;;;;;;;2.80;2.22;;;23.40;82.30;;;;;;6265583;27;88862;-68
2023/05/17 10:29:26;;;;;;;2.45;2.05;;;23.40;82.30;;;;;;6270159;27;89105;-68
2023/05/17 10:32:29;;;;;;;3.17;2.45;;;23.40;82.30;;;;;;6264664;27;90380;-68
2023/05/17 10:35:33;;;;;;;3.00;2.20;;;23.40;82.20;;;;;;6242041;27;89285;-68
2023/05/17 10:38:35;;;;;;;3.13;2.17;;;23.40;82.30;;;;;;6284880;27;89221;-68
2023/05/17 10:41:41;;;;;;;2.85;2.10;;;23.40;82.30;;;;;;6276139;27;89026;-68
2023/05/17 10:44:44;;;;;;;2.67;2.13;;;23.40;82.20;;;;;;6268962;27;89102;-69
2023/05/17 10:47:47;;;;;;;2.70;2.08;;;23.30;82.20;;;;;;6280974;27;89067;-69
2023/05/17 10:50:53;;;;;;;2.60;1.90;;;23.40;82.30;;;;;;6282957;27;88288;-69
2023/05/17 10:54:07;;;;;;;2.53;1.98;;;23.40;82.30;;;;;;6268405;27;88418;-68
2023/05/17 10:57:20;;;;;;;2.70;2.22;;;23.40;82.20;;;;;;6281043;27;89080;-69
2023/05/17 11:00:28;;;;;;;2.85;2.20;;;23.40;82.20;;;;;;6263499;27;89101;-69
2023/05/17 11:03:33;;;;;;;3.72;2.40;;;23.40;82.20;;;;;;6273161;27;89650;-69
2023/05/17 11:06:40;;;;;;;3.28;2.08;;;23.40;82.20;;;;;;6250401;27;89075;-69
2023/05/17 11:09:42;;;;;;;2.30;1.80;;;23.40;82.20;;;;;;6269973;27;89295;-69
2023/05/17 11:12:48;;;;;;;2.92;2.10;;;23.40;82.20;;;;;;6289325;27;89146;-69
2023/05/17 11:16:04;;;;;;;2.92;2.00;;;23.40;82.20;;;;;;6270731;27;89279;-68
2023/05/17 11:19:10;;;;;;;3.03;2.03;;;23.40;82.20;;;;;;6277779;27;89040;-69
2023/05/17 11:22:16;;;;;;;4.03;1.92;;;23.40;82.20;;;;;;6281141;27;88997;-69
2023/05/17 11:25:19;;;;;;;2.65;1.90;;;23.40;82.20;;;;;;6302739;27;88307;-69
2023/05/17 11:28:22;;;;;;;3.97;2.45;;;23.40;82.20;;;;;;6287376;27;89602;-69
2023/05/17 11:31:30;;;;;;;2.13;1.85;;;23.40;82.20;;;;;;6268932;27;89143;-68
2023/05/17 11:34:34;;;;;;;2.78;2.10;;;23.40;82.20;;;;;;6272245;27;90347;-70
2023/05/17 11:37:37;;;;;;;3.42;2.30;;;23.40;82.20;;;;;;6288932;27;89100;-69
2023/05/17 11:40:39;;;;;;;2.78;1.92;;;23.40;82.20;;;;;;6303794;27;89190;-68
2023/05/17 11:43:47;;;;;;;2.35;2.00;;;23.40;82.20;;;;;;6306450;27;89129;-69
2023/05/17 11:46:50;;;;;;;2.38;1.77;;;23.40;82.20;;;;;;6301641;27;89406;-69
2023/05/17 11:49:53;;;;;;;2.22;1.98;;;23.40;82.20;;;;;;6286726;27;89138;-69
2023/05/17 11:52:59;;;;;;;2.65;2.13;;;23.40;82.20;;;;;;6284439;27;90274;-69
2023/05/17 11:56:04;;;;;;;2.50;2.00;;;23.40;82.20;;;;;;6272905;27;88482;-69
2023/05/17 11:59:06;;;;;;;2.80;1.90;;;23.30;82.20;;;;;;6281382;27;87988;-69
2023/05/17 12:02:08;;;;;;;3.17;1.80;;;23.40;82.20;;;;;;6273834;27;89426;-68
2023/05/17 12:05:11;;;;;;;2.10;1.90;;;23.40;82.20;;;;;;6275735;27;89971;-69
2023/05/17 12:08:15;;;;;;;3.03;2.10;;;23.40;82.20;;;;;;6279013;27;88900;-69
2023/05/17 12:11:20;;;;;;;2.40;1.95;;;23.40;82.20;;;;;;6297453;27;88716;-69
2023/05/17 12:14:23;;;;;;;3.10;2.30;;;23.40;82.10;;;;;;6271220;27;89039;-68
2023/05/17 12:17:32;;;;;;;5.07;2.45;;;23.40;82.20;;;;;;6257993;27;89860;-69
2023/05/17 12:20:34;;;;;;;5.40;2.97;;;23.40;82.20;;;;;;6273874;27;89499;-69
2023/05/17 12:23:39;;;;;;;3.60;2.28;;;23.40;82.20;;;;;;6307443;27;88724;-69
2023/05/17 12:26:45;;;;;;;2.80;1.90;;;23.30;82.10;;;;;;6260786;27;88339;-69
2023/05/17 12:29:47;;;;;;;2.53;2.03;;;23.40;82.20;;;;;;6260697;27;90781;-68
2023/05/17 12:32:49;;;;;;;2.60;1.90;;;23.40;82.20;;;;;;6259105;27;89006;-69
2023/05/17 12:35:52;;;;;;;3.03;2.17;;;23.40;82.10;;;;;;6265920;27;90418;-68
2023/05/17 12:38:56;;;;;;;3.20;2.22;;;23.40;82.10;;;;;;6283026;27;89214;-69
2023/05/17 12:41:59;;;;;;;2.92;2.05;;;23.40;82.10;;;;;;6281527;27;89033;-69
2023/05/17 12:45:02;;;;;;;2.50;1.90;;;23.40;82.20;;;;;;6269798;27;88795;-69
2023/05/17 12:48:05;;;;;;;3.58;2.20;;;23.40;82.10;;;;;;6291696;27;89055;-69
2023/05/17 12:51:08;;;;;;;3.00;2.13;;;23.40;82.20;;;;;;6259998;27;89100;-68
2023/05/17 12:54:13;;;;;;;2.78;2.17;;;23.40;82.10;;;;;;6257809;27;87950;-69
2023/05/17 12:57:15;;;;;;;2.28;2.05;;;23.40;82.10;;;;;;6259188;27;88135;-69
2023/05/17 13:00:18;;;;;;;2.40;2.03;;;23.40;82.10;;;;;;6277913;27;90535;-68
2023/05/17 13:03:21;;;;;;;2.75;2.05;;;23.40;82.20;;;;;;6285417;27;89124;-69
2023/05/17 13:06:23;;;;;;;2.75;2.10;;;23.40;82.20;;;;;;6291527;27;90040;-69
2023/05/17 13:09:29;;;;;;;2.67;2.00;;;23.40;82.20;;;;;;6285060;27;89039;-69
2023/05/17 13:12:31;;;;;;;3.35;2.38;;;23.40;82.20;;;;;;6284498;27;88968;-69
2023/05/17 13:15:33;;;;;;;3.75;2.17;;;23.40;82.20;;;;;;6292896;27;90429;-68
2023/05/17 13:18:49;;;;;;;2.65;1.95;;;23.40;82.20;;;;;;6281676;27;89039;-69
2023/05/17 13:21:51;;;;;;;2.60;2.05;;;23.40;82.20;;;;;;6282126;27;88828;-69
2023/05/17 13:24:54;;;;;;;2.67;1.92;;;23.40;82.20;;;;;;6293504;27;89068;-68
2023/05/17 13:27:56;;;;;;;3.25;1.95;;;23.40;82.20;;;;;;6294373;27;88402;-69
2023/05/17 13:30:58;;;;;;;2.92;2.08;;;23.30;82.10;;;;;;6301919;27;89352;-68
2023/05/17 13:34:00;;;;;;;2.45;1.92;;;23.40;82.20;;;;;;6270165;27;89009;-69
2023/05/17 13:37:02;;;;;;;2.33;1.88;;;23.30;82.10;;;;;;6253662;27;90233;-69
2023/05/17 13:40:07;;;;;;;2.67;2.00;;;23.40;82.20;;;;;;6256380;27;89074;-69
2023/05/17 13:43:09;;;;;;;3.17;2.30;;;23.40;82.20;;;;;;6275151;27;89244;-69
2023/05/17 13:46:11;;;;;;;3.78;2.38;;;23.40;82.20;;;;;;6293673;27;91614;-68
2023/05/17 13:49:13;;;;;;;2.95;2.25;;;23.40;82.20;;;;;;6293382;27;89047;-69
2023/05/17 13:52:17;;;;;;;2.25;1.98;;;23.30;82.10;;;;;;6273742;27;89045;-69
2023/05/17 13:55:20;;;;;;;2.38;2.10;;;23.40;82.20;;;;;;6268170;27;89475;-69
2023/05/17 13:58:22;;;;;;;3.00;2.20;;;23.40;82.20;;;;;;6271744;27;88447;-69
2023/05/17 14:01:25;;;;;;;3.42;2.08;;;23.40;82.20;;;;;;6274458;27;89516;-69
2023/05/17 14:04:27;;;;;;;2.00;1.80;;;23.40;82.20;;;;;;6287864;27;89102;-70
2023/05/17 14:07:29;;;;;;;3.03;1.88;;;23.40;82.20;;;;;;6287568;27;89941;-69
2023/05/17 14:10:32;;;;;;;3.13;1.95;;;23.40;82.20;;;;;;6261212;27;89399;-69
2023/05/17 14:13:34;;;;;;;2.78;1.92;;;23.40;82.20;;;;;;6279172;27;89404;-69
2023/05/17 14:16:36;;;;;;;3.38;2.28;;;23.40;82.20;;;;;;6280290;27;88272;-69
2023/05/17 14:19:38;;;;;;;3.75;2.17;;;23.40;82.20;;;;;;6267843;27;89159;-69
2023/05/17 14:22:40;;;;;;;3.00;2.10;;;23.40;82.20;;;;;;6292407;27;89062;-69
2023/05/17 14:25:44;;;;;;;2.50;2.10;;;23.40;82.20;;;;;;6264866;27;88305;-69
2023/05/17 14:28:45;;;;;;;2.90;2.15;;;23.40;82.20;;;;;;6272573;27;87241;-69
2023/05/17 14:31:48;;;;;;;3.00;2.20;;;23.40;82.30;;;;;;6268297;27;89426;-69
2023/05/17 14:34:49;;;;;;;2.53;2.30;;;23.30;82.10;;;;;;6276407;27;88799;-70
2023/05/17 14:37:51;;;;;;;2.80;1.92;;;23.40;82.20;;;;;;6265046;27;90092;-70
2023/05/17 14:40:55;;;;;;;3.75;2.53;;;23.40;82.20;;;;;;6265040;27;89128;-69
2023/05/17 14:43:57;;;;;;;3.03;2.28;;;23.40;82.20;;;;;;6265239;27;89143;-69
2023/05/17 14:46:59;;;;;;;3.33;2.30;;;23.40;82.20;;;;;;6280329;27;88975;-69
2023/05/17 14:50:01;;;;;;;2.85;2.20;;;23.40;82.20;;;;;;6273328;27;89191;-69
2023/05/17 14:53:03;;;;;;;3.42;2.60;;;23.40;82.20;;;;;;6255751;27;89088;-69
2023/05/17 14:56:07;;;;;;;2.70;2.13;;;23.40;82.20;;;;;;6281281;27;89369;-69
2023/05/17 14:59:09;;;;;;;2.75;2.10;;;23.40;82.20;;;;;;6283531;27;87282;-69
2023/05/17 15:02:11;;;;;;;2.33;2.00;;;23.40;82.20;;;;;;6279950;27;89090;-69
2023/05/17 15:05:13;;;;;;;4.35;2.60;;;23.40;82.20;;;;;;6256367;27;89158;-69
2023/05/17 15:08:15;;;;;;;3.15;2.17;;;23.40;82.20;;;;;;6255981;27;90001;-69
2023/05/17 15:11:18;;;;;;;2.20;1.80;;;23.40;82.20;;;;;;6269010;27;89282;-70
2023/05/17 15:14:22;;;;;;;3.38;2.28;;;23.40;82.20;;;;;;6270196;27;89333;-69
2023/05/17 15:17:24;;;;;;;3.10;2.30;;;23.40;82.20;;;;;;6265713;27;88950;-69
2023/05/17 15:20:26;;;;;;;2.83;2.17;;;23.40;82.20;;;;;;6287531;27;87992;-70
2023/05/17 15:23:28;;;;;;;2.25;2.00;;;23.40;82.20;;;;;;6288687;27;89145;-69
2023/05/17 15:26:31;;;;;;;2.58;2.08;;;23.40;82.20;;;;;;6294927;27;88010;-69
2023/05/17 15:29:33;;;;;;;2.63;2.33;;;23.30;82.20;;;;;;6283922;27;87172;-69
2023/05/17 15:32:36;;;;;;;3.95;2.47;;;23.40;82.20;;;;;;6253733;27;89061;-69
2023/05/17 15:35:41;;;;;;;2.40;2.17;;;23.40;82.20;;;;;;6273717;27;87078;-69
2023/05/17 15:38:43;;;;;;;2.78;2.30;;;23.30;82.10;;;;;;6275448;27;90260;-68
2023/05/17 15:41:47;;;;;;;3.55;2.50;;;23.30;82.20;;;;;;6267422;27;89381;-69
2023/05/17 15:44:49;;;;;;;3.13;2.38;;;23.30;82.20;;;;;;6291887;27;89007;-68
2023/05/17 15:47:51;;;;;;;2.60;2.30;;;23.30;82.10;;;;;;6278597;27;89135;-69
2023/05/17 15:50:52;;;;;;;3.10;2.30;;;23.30;82.10;;;;;;6273055;27;89425;-68